WMPA

Pulau Pangkor Airport

Pangkor Island, Malaysia
TAF WMPA 250500Z 2506/2606 VRB05KT 9999 FEW024 PROB30 TEMPO 2519/2523 6000 -TSRA FEW017CB
Issued Valid From Valid To
Sep-25 @ 05:00 UTC
(13 hours ago)
Sep-25 @ 06:00 UTC
(12 hours ago)
Sep-26 @ 06:00 UTC
(in 12 hours)
Sep-25 @ 06:00 to Sep-26 @ 06:00
TAF WMPA 250500Z 2506/2606 VRB05KT 9999 FEW024
Wind Visibility Clouds
Variable at 5 knots 10,000+ meters
  • Few at 2,400' AGL
Temporary  (Probability 30%) Sep-25 @ 19:00 to Sep-25 @ 23:00
PROB30 TEMPO 2519/2523 6000 -TSRA FEW017CB
Visibility Clouds Conditions
6,003 meters
  • Few at 1,700' AGL
  • Light Thunderstorm
  • Light Rain
TAF WMPA 250500Z 2506/2606 VRB05KT 9999 FEW024 PROB30 TEMPO 2519/2523 6000 -TSRA FEW017CB
Issued Sep-25 @ 05:00 UTC
(13 hours ago)
Valid From Sep-25 @ 06:00 UTC
(12 hours ago)
Valid To Sep-26 @ 06:00 UTC
(in 12 hours)
Sep-25 @ 06:00 - Sep-26 @ 06:00
Wind Visibility
Variable at 5 knots 10,000+ meters
Clouds
  • Few at 2,400' AGL
Probability 30% Temporary Sep-25 @ 19:00 - Sep-25 @ 23:00
Clouds
  • Few at 1,700' AGL
Conditions
  • Light Thunderstorm
  • Light Rain